createdAt,value
2019-03-30T04:46:20.831Z,88.96
2019-03-30T04:47:20.823Z,89.28
2019-03-30T04:48:20.817Z,89.79
2019-03-30T04:49:20.798Z,90.14
2019-03-30T04:50:20.784Z,90.62
2019-03-30T04:51:20.768Z,90.83
2019-03-30T04:52:20.770Z,90.87
2019-03-30T04:53:20.774Z,90.45
2019-03-30T04:54:20.746Z,90.25
2019-03-30T04:55:20.735Z,89.73
2019-03-30T04:56:20.727Z,89.89
2019-03-30T04:57:20.724Z,89.11
2019-03-30T04:58:20.701Z,88.86
2019-03-30T04:59:20.687Z,89.07
2019-03-30T05:00:20.683Z,88.86
2019-03-30T05:01:20.682Z,88.96
2019-03-30T05:02:20.660Z,88.96
2019-03-30T05:03:20.656Z,89.07
2019-03-30T05:04:20.641Z,88.86
2019-03-30T05:05:20.629Z,89.28
2019-03-30T05:06:20.620Z,89.28
2019-03-30T05:07:20.602Z,89.28
2019-03-30T05:08:20.597Z,89.58
2019-03-30T05:09:20.594Z,89.69
2019-03-30T05:10:20.579Z,89.89
2019-03-30T05:11:20.564Z,89.79
2019-03-30T05:12:21.485Z,89.79
2019-03-30T05:13:20.538Z,89.58
2019-03-30T05:14:20.527Z,89.69
2019-03-30T05:15:20.531Z,88.82
2019-03-30T05:16:20.510Z,89.07
2019-03-30T05:17:20.505Z,88.92
2019-03-30T05:18:20.490Z,88.34
2019-03-30T05:19:20.492Z,88.71
2019-03-30T05:20:20.495Z,88.92
2019-03-30T05:21:20.457Z,88.30
2019-03-30T05:22:20.448Z,88.30
2019-03-30T05:23:20.438Z,88.20
2019-03-30T05:24:20.420Z,88.09
2019-03-30T05:25:20.410Z,88.61
2019-03-30T05:26:20.413Z,88.71
2019-03-30T05:27:20.394Z,89.13
2019-03-30T05:28:20.388Z,89.13
2019-03-30T05:29:20.371Z,89.23
2019-03-30T05:30:20.357Z,88.82
2019-03-30T05:31:20.366Z,89.54
2019-03-30T05:32:20.343Z,89.75
2019-03-30T05:33:20.328Z,90.26
2019-03-30T05:34:20.320Z,90.37
2019-03-30T05:35:20.307Z,90.68
2019-03-30T05:36:20.304Z,90.16
2019-03-30T05:37:20.291Z,90.78
2019-03-30T05:38:20.278Z,90.68
2019-03-30T05:39:20.263Z,90.64
2019-03-30T05:40:20.253Z,90.64
2019-03-30T05:41:20.276Z,90.33
2019-03-30T05:42:20.239Z,90.26
2019-03-30T05:43:20.225Z,90.33
2019-03-30T05:44:20.217Z,90.44
2019-03-30T05:45:20.200Z,90.33
2019-03-30T05:46:20.196Z,90.33
2019-03-30T05:47:20.203Z,90.33
2019-03-30T05:48:20.168Z,90.33
2019-03-30T05:49:20.158Z,90.23
2019-03-30T05:50:20.151Z,90.23
2019-03-30T05:51:20.150Z,90.12
2019-03-30T05:52:26.373Z,89.87
2019-03-30T05:53:21.116Z,90.23
2019-03-30T05:54:20.112Z,90.08
2019-03-30T05:55:20.094Z,89.56
2019-03-30T05:56:20.164Z,89.67
2019-03-30T05:57:20.115Z,89.56
2019-03-30T05:58:20.088Z,89.25
2019-03-30T05:59:20.052Z,89.22
2019-03-30T06:00:20.045Z,89.01
2019-03-30T06:01:20.038Z,89.01
2019-03-30T06:02:20.019Z,89.01
2019-03-30T06:03:20.022Z,88.90
2019-03-30T06:04:20.004Z,88.80
2019-03-30T06:05:19.993Z,88.18
2019-03-30T06:06:19.983Z,88.55
2019-03-30T06:07:19.976Z,88.34
2019-03-30T06:08:19.973Z,88.24
2019-03-30T06:09:19.948Z,88.04
2019-03-30T06:10:19.942Z,87.99
2019-03-30T06:11:19.926Z,87.79
2019-03-30T06:12:19.913Z,87.99
2019-03-30T06:13:19.933Z,87.79
2019-03-30T06:14:19.899Z,87.89
2019-03-30T06:15:19.887Z,87.89
2019-03-30T06:16:19.883Z,87.85
2019-03-30T06:17:19.865Z,87.23
2019-03-30T06:18:19.850Z,86.92
2019-03-30T06:19:19.859Z,86.47
2019-03-30T06:20:19.836Z,86.68
2019-03-30T06:21:19.818Z,86.74
2019-03-30T06:22:19.814Z,86.32
2019-03-30T06:23:19.802Z,87.05
2019-03-30T06:24:19.816Z,86.63
2019-03-30T06:25:19.782Z,85.91
2019-03-30T06:26:19.934Z,85.67
2019-03-30T06:27:19.759Z,85.15
2019-03-30T06:28:19.748Z,85.52
2019-03-30T06:29:19.738Z,85.11
2019-03-30T06:30:19.742Z,84.80
2019-03-30T06:31:19.716Z,84.19
2019-03-30T06:32:19.702Z,84.56
2019-03-30T06:33:19.695Z,83.73
2019-03-30T06:34:19.680Z,84.14
2019-03-30T06:35:19.714Z,84.00
2019-03-30T06:36:19.661Z,83.39
2019-03-30T06:37:19.656Z,83.84
2019-03-30T06:38:19.643Z,83.22
2019-03-30T06:39:19.626Z,82.97
2019-03-30T06:40:19.622Z,82.35
2019-03-30T06:41:19.619Z,82.63
2019-03-30T06:42:19.600Z,82.63
2019-03-30T06:43:19.594Z,82.11
2019-03-30T06:44:19.585Z,82.07
2019-03-30T06:45:19.563Z,81.87
2019-03-30T06:46:19.558Z,81.52
2019-03-30T06:47:19.540Z,81.21
2019-03-30T06:48:19.533Z,81.28
2019-03-30T06:49:19.528Z,80.77
2019-03-30T06:50:19.513Z,80.66
2019-03-30T06:51:19.522Z,80.25
2019-03-30T06:52:19.489Z,80.25
2019-03-30T06:53:19.483Z,80.15
2019-03-30T06:54:19.473Z,79.80
2019-03-30T06:55:19.462Z,79.80
2019-03-30T06:56:19.448Z,79.39
2019-03-30T06:57:19.446Z,79.15
2019-03-30T06:58:19.422Z,78.43
2019-03-30T06:59:19.412Z,78.33
2019-03-30T07:00:19.407Z,77.68
2019-03-30T07:01:19.398Z,78.29
2019-03-30T07:02:19.386Z,78.05
2019-03-30T07:03:19.379Z,77.29
2019-03-30T07:04:19.362Z,77.09
2019-03-30T07:05:19.347Z,76.54
2019-03-30T07:06:19.344Z,76.24
2019-03-30T07:07:19.326Z,75.99
2019-03-30T07:08:19.357Z,75.38
2019-03-30T07:09:19.319Z,75.45
2019-03-30T07:10:19.299Z,75.35
2019-03-30T07:11:21.317Z,75.04
2019-03-30T07:12:19.283Z,75.21
2019-03-30T07:13:19.277Z,75.42
2019-03-30T07:14:19.262Z,74.39
2019-03-30T07:15:19.256Z,74.60
2019-03-30T07:16:19.229Z,73.85
2019-03-30T07:17:19.222Z,74.05
2019-03-30T07:18:19.224Z,73.81
2019-03-30T07:19:19.211Z,73.36
2019-03-30T07:20:19.191Z,72.14
2019-03-30T07:21:19.175Z,72.41
2019-03-30T07:22:19.164Z,72.07
2019-03-30T07:23:19.160Z,71.26
2019-03-30T07:24:19.182Z,71.53
2019-03-30T07:25:19.144Z,71.50
2019-03-30T07:26:19.126Z,71.50
2019-03-30T07:27:19.111Z,70.04
2019-03-30T07:28:19.103Z,70.24
2019-03-30T07:29:19.093Z,69.29
2019-03-30T07:30:19.093Z,68.57
2019-03-30T07:31:19.086Z,68.85
2019-03-30T07:32:19.065Z,68.65
2019-03-30T07:33:19.051Z,67.60
2019-03-30T07:34:20.034Z,68.21
2019-03-30T07:35:19.041Z,67.77
2019-03-30T07:36:19.022Z,67.63
2019-03-30T07:37:19.014Z,65.60
2019-03-30T07:38:18.997Z,66.35
2019-03-30T07:39:18.981Z,65.83
2019-03-30T07:40:18.989Z,66.24
2019-03-30T07:41:18.977Z,65.50
2019-03-30T07:42:18.952Z,64.45
2019-03-30T07:43:18.938Z,63.71
2019-03-30T07:44:18.933Z,62.70
2019-03-30T07:45:18.918Z,62.66
2019-03-30T07:46:19.728Z,63.07
2019-03-30T07:47:18.905Z,62.56
2019-03-30T07:48:18.892Z,62.13
2019-03-30T07:49:18.879Z,61.59
2019-03-30T07:50:18.872Z,60.07
2019-03-30T07:51:18.878Z,60.04
2019-03-30T07:52:18.842Z,60.31
2019-03-30T07:53:26.226Z,59.27
2019-03-30T07:54:19.820Z,58.67
2019-03-30T07:55:18.810Z,58.84
2019-03-30T07:56:18.803Z,58.84
2019-03-30T07:57:18.804Z,59.14
2019-03-30T07:58:18.785Z,57.83
2019-03-30T07:59:18.771Z,58.84
2019-03-30T08:00:18.756Z,57.80
2019-03-30T08:01:18.754Z,57.90
2019-03-30T08:02:18.752Z,56.15
2019-03-30T08:03:18.724Z,56.13
2019-03-30T08:04:18.721Z,55.44
2019-03-30T08:05:18.708Z,55.49
2019-03-30T08:06:18.697Z,55.07
2019-03-30T08:07:18.711Z,55.16
2019-03-30T08:08:18.676Z,53.12
2019-03-30T08:09:18.670Z,54.10
2019-03-30T08:10:18.662Z,53.50
2019-03-30T08:11:18.647Z,53.70
2019-03-30T08:12:18.635Z,53.83
2019-03-30T08:13:18.625Z,53.30
2019-03-30T08:14:18.637Z,55.11
2019-03-30T08:15:18.612Z,53.47
2019-03-30T08:16:18.588Z,53.14
2019-03-30T08:17:18.598Z,51.71
2019-03-30T08:18:18.572Z,51.91
2019-03-30T08:19:21.643Z,51.81
2019-03-30T08:20:18.561Z,51.18
2019-03-30T08:21:18.538Z,51.18
2019-03-30T08:22:18.530Z,51.46
2019-03-30T08:23:18.516Z,50.65
2019-03-30T08:24:18.513Z,50.33
2019-03-30T08:25:18.497Z,49.82
2019-03-30T08:26:18.485Z,49.19
2019-03-30T08:27:18.475Z,51.01
2019-03-30T08:28:18.499Z,50.89
2019-03-30T08:29:18.446Z,50.68
2019-03-30T08:30:18.441Z,50.66
2019-03-30T08:31:18.434Z,49.33
2019-03-30T08:32:18.415Z,49.51
2019-03-30T08:33:18.415Z,47.88
2019-03-30T08:34:18.409Z,48.55
2019-03-30T08:35:18.393Z,47.96
2019-03-30T08:36:18.378Z,48.23
2019-03-30T08:37:18.370Z,45.45
2019-03-30T08:38:18.351Z,45.67
2019-03-30T08:39:18.356Z,46.15
2019-03-30T08:40:18.331Z,45.83
2019-03-30T08:41:18.325Z,46.42
2019-03-30T08:42:18.314Z,46.03
2019-03-30T08:43:18.309Z,46.91
2019-03-30T08:44:18.300Z,46.20
2019-03-30T08:45:18.288Z,44.58
2019-03-30T08:46:18.270Z,44.87
2019-03-30T08:47:18.266Z,45.26
2019-03-30T08:48:18.254Z,45.47
2019-03-30T08:49:18.263Z,44.84
2019-03-30T08:50:18.234Z,45.42
2019-03-30T08:51:20.762Z,45.54
2019-03-30T08:52:18.203Z,43.80
2019-03-30T08:53:18.204Z,43.90
2019-03-30T08:54:18.209Z,44.20
2019-03-30T08:55:18.177Z,43.90
2019-03-30T08:56:18.160Z,43.60
2019-03-30T08:57:18.152Z,44.96
2019-03-30T08:58:18.145Z,45.39
2019-03-30T08:59:18.140Z,46.23
2019-03-30T09:00:18.619Z,47.80
2019-03-30T09:01:18.137Z,47.70
2019-03-30T09:02:18.106Z,45.77
2019-03-30T09:03:18.094Z,45.04
2019-03-30T09:04:18.075Z,45.02
2019-03-30T09:05:18.074Z,45.40
2019-03-30T09:06:18.061Z,44.10
2019-03-30T09:07:18.051Z,43.55
2019-03-30T09:08:18.065Z,42.93
2019-03-30T09:09:18.028Z,43.82
2019-03-30T09:10:18.018Z,43.32
2019-03-30T09:11:18.017Z,42.61
2019-03-30T09:12:18.004Z,41.93
2019-03-30T09:13:17.986Z,42.83
2019-03-30T09:14:17.977Z,43.35
2019-03-30T09:15:17.974Z,42.77
2019-03-30T09:16:17.982Z,42.88
2019-03-30T09:17:17.943Z,43.88
2019-03-30T09:18:17.932Z,43.27
2019-03-30T09:19:22.151Z,42.88
2019-03-30T09:20:17.912Z,43.27
2019-03-30T09:21:17.906Z,43.68
2019-03-30T09:22:17.899Z,43.26
2019-03-30T09:23:17.883Z,43.43
2019-03-30T09:24:17.878Z,41.83
2019-03-30T09:25:17.858Z,41.53
2019-03-30T09:26:17.891Z,42.25
2019-03-30T09:27:17.841Z,41.75
2019-03-30T09:28:17.826Z,41.55
2019-03-30T09:29:17.821Z,41.96
2019-03-30T09:30:17.810Z,41.75
2019-03-30T09:31:17.802Z,41.77
2019-03-30T09:32:17.807Z,41.99
2019-03-30T09:33:17.779Z,42.68
2019-03-30T09:34:17.772Z,42.16
2019-03-30T09:35:17.761Z,41.46
2019-03-30T09:36:17.742Z,42.11
2019-03-30T09:37:17.747Z,42.49
2019-03-30T09:38:17.722Z,43.40
2019-03-30T09:39:17.717Z,42.77
2019-03-30T09:40:17.706Z,41.15
2019-03-30T09:41:17.694Z,41.27
2019-03-30T09:42:17.692Z,41.82
2019-03-30T09:43:17.696Z,42.52
2019-03-30T09:44:17.657Z,42.38
2019-03-30T09:45:17.693Z,41.55
2019-03-30T09:46:17.637Z,40.75
2019-03-30T09:47:17.626Z,41.11
2019-03-30T09:48:17.622Z,39.61
2019-03-30T09:49:17.609Z,40.30
2019-03-30T09:50:17.601Z,39.85
2019-03-30T09:51:17.596Z,40.45
2019-03-30T09:52:17.578Z,40.51
2019-03-30T09:53:17.568Z,42.25
2019-03-30T09:54:23.553Z,43.24
2019-03-30T09:55:18.544Z,43.22
2019-03-30T09:56:17.544Z,43.70
2019-03-30T09:57:17.521Z,42.90
2019-03-30T09:58:17.517Z,43.27
2019-03-30T09:59:17.505Z,41.49
2019-03-30T10:00:17.507Z,41.82
2019-03-30T10:01:17.484Z,41.29
2019-03-30T10:02:17.468Z,41.41
2019-03-30T10:03:17.457Z,41.99
2019-03-30T10:04:17.462Z,42.10
2019-03-30T10:05:17.437Z,41.79
2019-03-30T10:06:17.434Z,42.30
2019-03-30T10:07:17.437Z,41.77
2019-03-30T10:08:17.413Z,42.94
2019-03-30T10:09:17.403Z,42.74
2019-03-30T10:10:17.395Z,44.14
2019-03-30T10:11:17.376Z,43.50
2019-03-30T10:12:17.370Z,42.97
2019-03-30T10:13:17.358Z,41.75
2019-03-30T10:14:17.342Z,41.25
2019-03-30T10:15:17.348Z,43.08
2019-03-30T10:16:17.327Z,42.74
2019-03-30T10:17:17.324Z,41.83
2019-03-30T10:18:17.316Z,40.63
2019-03-30T10:19:17.297Z,41.75
2019-03-30T10:20:17.294Z,43.64
2019-03-30T10:21:17.292Z,43.54
2019-03-30T10:22:17.258Z,43.44
2019-03-30T10:23:17.260Z,43.70
2019-03-30T10:24:17.239Z,43.16
2019-03-30T10:25:17.234Z,42.02
2019-03-30T10:26:17.245Z,41.88
2019-03-30T10:27:17.211Z,40.58
2019-03-30T10:28:17.203Z,40.34
2019-03-30T10:29:17.186Z,39.62
2019-03-30T10:30:17.186Z,38.89
2019-03-30T10:31:17.268Z,39.12
2019-03-30T10:32:17.173Z,39.76
2019-03-30T10:33:17.180Z,39.65
2019-03-30T10:34:17.148Z,40.56
2019-03-30T10:35:17.218Z,40.16
2019-03-30T10:36:17.211Z,40.14
2019-03-30T10:37:17.101Z,39.82
2019-03-30T10:38:17.098Z,38.84
2019-03-30T10:39:17.093Z,39.76
2019-03-30T10:40:20.630Z,39.86
2019-03-30T10:41:17.066Z,40.14
2019-03-30T10:42:17.055Z,38.62
2019-03-30T10:43:17.041Z,38.40
2019-03-30T10:44:17.066Z,37.98
2019-03-30T10:45:17.028Z,38.37
2019-03-30T10:46:17.011Z,36.55
2019-03-30T10:47:16.998Z,38.15
2019-03-30T10:48:16.989Z,38.13
2019-03-30T10:49:16.999Z,38.09
2019-03-30T10:50:16.981Z,36.36
2019-03-30T10:51:16.965Z,36.07
2019-03-30T10:52:16.955Z,35.85
2019-03-30T10:53:16.946Z,35.06
2019-03-30T10:54:17.601Z,34.28
2019-03-30T10:55:16.935Z,35.21
2019-03-30T10:56:16.912Z,34.01
2019-03-30T10:57:16.905Z,35.42
2019-03-30T10:58:16.896Z,35.71
2019-03-30T10:59:16.881Z,34.52
2019-03-30T11:00:16.872Z,34.20
2019-03-30T11:01:16.870Z,34.78
2019-03-30T11:02:16.852Z,33.88
2019-03-30T11:03:16.868Z,34.38
2019-03-30T11:04:16.822Z,33.76
2019-03-30T11:05:16.820Z,33.75
2019-03-30T11:06:16.827Z,34.23
2019-03-30T11:07:16.795Z,32.86
2019-03-30T11:08:16.787Z,33.95
2019-03-30T11:09:16.785Z,34.17
2019-03-30T11:10:16.761Z,32.49
2019-03-30T11:11:16.760Z,33.78
2019-03-30T11:12:16.755Z,32.38
2019-03-30T11:13:16.734Z,32.03
2019-03-30T11:14:16.781Z,31.90
2019-03-30T11:15:16.716Z,30.30
2019-03-30T11:16:16.714Z,30.08
2019-03-30T11:17:19.318Z,29.97
2019-03-30T11:18:16.687Z,29.58
2019-03-30T11:19:16.677Z,28.51
2019-03-30T11:20:16.667Z,30.35
2019-03-30T11:21:16.662Z,30.84
2019-03-30T11:22:16.668Z,29.47
2019-03-30T11:23:16.638Z,29.96
2019-03-30T11:24:16.626Z,30.94
2019-03-30T11:25:16.616Z,30.83
2019-03-30T11:26:16.615Z,30.71
2019-03-30T11:27:17.248Z,29.24
2019-03-30T11:28:16.619Z,30.13
2019-03-30T11:29:16.577Z,29.72
2019-03-30T11:30:16.574Z,29.03
2019-03-30T11:31:16.565Z,29.83
2019-03-30T11:32:16.544Z,30.73
2019-03-30T11:33:16.543Z,31.11
2019-03-30T11:34:16.527Z,31.38
2019-03-30T11:35:16.515Z,29.69
2019-03-30T11:36:18.688Z,29.88
2019-03-30T11:37:16.489Z,29.17
2019-03-30T11:38:16.483Z,30.26
2019-03-30T11:39:16.475Z,29.96
2019-03-30T11:40:16.463Z,29.27
2019-03-30T11:41:16.455Z,29.10
2019-03-30T11:42:16.565Z,31.34
2019-03-30T11:43:16.431Z,31.98
2019-03-30T11:44:16.424Z,31.90
2019-03-30T11:45:16.408Z,32.51
2019-03-30T11:46:16.408Z,32.51
2019-03-30T11:47:16.412Z,33.48
2019-03-30T11:48:16.383Z,33.15
2019-03-30T11:49:16.368Z,32.15
2019-03-30T11:50:16.359Z,31.85
2019-03-30T11:51:16.355Z,31.63
2019-03-30T11:52:16.376Z,32.02
2019-03-30T11:53:16.329Z,31.42
2019-03-30T11:54:16.326Z,31.11
2019-03-30T11:55:22.194Z,31.52
2019-03-30T11:56:17.307Z,32.12
2019-03-30T11:57:16.290Z,31.60
2019-03-30T11:58:16.296Z,31.88
2019-03-30T11:59:16.266Z,31.48
2019-03-30T12:00:16.262Z,30.79
2019-03-30T12:01:16.246Z,30.80
2019-03-30T12:02:27.278Z,31.13
2019-03-30T12:03:17.236Z,31.32
2019-03-30T12:04:16.224Z,31.21
2019-03-30T12:05:16.206Z,31.99
2019-03-30T12:06:16.201Z,31.29
2019-03-30T12:07:16.190Z,30.71
2019-03-30T12:08:16.179Z,30.52
2019-03-30T12:09:16.478Z,30.36
2019-03-30T12:10:16.155Z,30.86
2019-03-30T12:11:16.171Z,31.88
2019-03-30T12:12:16.134Z,31.95
2019-03-30T12:13:16.130Z,31.84
2019-03-30T12:14:16.129Z,31.31
2019-03-30T12:15:16.117Z,31.11
2019-03-30T12:16:16.105Z,30.73
2019-03-30T12:17:16.096Z,30.62
2019-03-30T12:18:16.080Z,30.60
2019-03-30T12:19:16.079Z,30.04
2019-03-30T12:20:16.062Z,30.46
2019-03-30T12:21:16.065Z,31.15
2019-03-30T12:22:16.034Z,31.00
2019-03-30T12:23:16.024Z,32.08
2019-03-30T12:24:16.028Z,31.95
2019-03-30T12:25:16.008Z,29.77
2019-03-30T12:26:16.235Z,28.39
2019-03-30T12:27:16.000Z,29.41
2019-03-30T12:28:15.984Z,28.70
2019-03-30T12:29:15.965Z,29.48
2019-03-30T12:30:15.969Z,28.89
2019-03-30T12:31:15.945Z,30.16
2019-03-30T12:32:15.947Z,29.55
2019-03-30T12:33:15.936Z,28.88
2019-03-30T12:34:15.917Z,29.71
2019-03-30T12:35:15.911Z,30.54
2019-03-30T12:36:16.123Z,31.81
2019-03-30T12:37:15.897Z,30.82
2019-03-30T12:38:15.871Z,29.91
2019-03-30T12:39:15.877Z,30.90
2019-03-30T12:40:15.855Z,29.81
2019-03-30T12:41:15.846Z,30.68
2019-03-30T12:42:15.857Z,28.89
2019-03-30T12:43:15.823Z,29.07
2019-03-30T12:44:15.814Z,29.65
2019-03-30T12:45:15.815Z,27.72
2019-03-30T12:46:15.790Z,29.14
2019-03-30T12:47:15.784Z,30.30
2019-03-30T12:48:15.812Z,27.91
2019-03-30T12:49:15.767Z,28.33
2019-03-30T12:50:15.754Z,28.74
2019-03-30T12:51:15.745Z,28.44
2019-03-30T12:52:15.730Z,29.25
2019-03-30T12:53:15.716Z,29.85
2019-03-30T12:54:15.721Z,29.82
2019-03-30T12:55:15.699Z,30.12
2019-03-30T12:56:15.687Z,29.43
2019-03-30T12:57:15.686Z,28.94
2019-03-30T12:58:15.665Z,30.45
2019-03-30T12:59:15.672Z,30.46
2019-03-30T13:00:15.646Z,31.66
2019-03-30T13:01:15.776Z,30.16
2019-03-30T13:02:15.631Z,30.46
2019-03-30T13:03:15.621Z,29.86
2019-03-30T13:04:15.608Z,31.24
2019-03-30T13:05:15.650Z,30.36
2019-03-30T13:06:15.609Z,30.68
2019-03-30T13:07:15.571Z,30.98
2019-03-30T13:08:15.574Z,30.38
2019-03-30T13:09:15.556Z,31.60
2019-03-30T13:10:15.545Z,32.98
2019-03-30T13:11:15.557Z,34.46
2019-03-30T13:12:15.527Z,33.25
2019-03-30T13:13:15.518Z,31.40
2019-03-30T13:14:15.502Z,31.84
2019-03-30T13:15:15.500Z,33.47
2019-03-30T13:16:15.484Z,32.88
2019-03-30T13:17:15.499Z,34.09
2019-03-30T13:18:15.463Z,33.31
2019-03-30T13:19:15.448Z,34.01
2019-03-30T13:20:15.441Z,34.73
2019-03-30T13:21:15.430Z,35.75
2019-03-30T13:22:15.415Z,36.05
2019-03-30T13:23:15.440Z,36.23
2019-03-30T13:24:15.392Z,36.23
2019-03-30T13:25:15.392Z,36.23
2019-03-30T13:26:15.376Z,35.93
2019-03-30T13:27:16.197Z,36.21
2019-03-30T13:28:15.355Z,35.71
2019-03-30T13:29:15.352Z,36.21
2019-03-30T13:30:15.338Z,35.71
2019-03-30T13:31:15.329Z,36.79
2019-03-30T13:32:15.716Z,35.98
2019-03-30T13:33:15.305Z,34.26
2019-03-30T13:34:15.285Z,33.95
2019-03-30T13:35:15.280Z,32.45
2019-03-30T13:36:15.329Z,33.65
2019-03-30T13:37:16.197Z,33.56
2019-03-30T13:38:15.426Z,34.56
2019-03-30T13:39:15.251Z,33.84
2019-03-30T13:40:15.226Z,33.56
2019-03-30T13:41:15.216Z,33.54
2019-03-30T13:42:15.203Z,33.06
2019-03-30T13:43:15.203Z,32.55
2019-03-30T13:44:15.186Z,32.23
2019-03-30T13:45:15.166Z,31.82
2019-03-30T13:46:15.170Z,32.18
2019-03-30T13:47:15.150Z,31.09
2019-03-30T13:48:15.139Z,32.29
2019-03-30T13:49:15.136Z,32.40
2019-03-30T13:50:15.114Z,32.80
2019-03-30T13:51:15.147Z,33.01
2019-03-30T13:52:15.096Z,33.81
2019-03-30T13:53:15.085Z,33.81
2019-03-30T13:54:15.078Z,33.81
2019-03-30T13:55:15.330Z,33.01
2019-03-30T13:56:17.461Z,32.35
2019-03-30T13:57:15.052Z,33.86
2019-03-30T13:58:15.029Z,33.66
2019-03-30T13:59:15.027Z,34.46
2019-03-30T14:00:15.072Z,33.26
2019-03-30T14:01:14.999Z,33.25
2019-03-30T14:02:14.986Z,32.76
2019-03-30T14:03:14.975Z,33.86
2019-03-30T14:04:14.968Z,34.06
2019-03-30T14:05:14.962Z,34.06
2019-03-30T14:06:14.961Z,33.96
2019-03-30T14:07:14.940Z,34.26
2019-03-30T14:08:14.928Z,34.08
2019-03-30T14:09:14.918Z,34.28
2019-03-30T14:10:15.679Z,34.30
2019-03-30T14:11:14.903Z,36.23
2019-03-30T14:12:14.879Z,36.96
2019-03-30T14:13:14.871Z,38.17
2019-03-30T14:14:14.968Z,37.27
2019-03-30T14:15:14.857Z,37.38
2019-03-30T14:16:14.850Z,36.78
2019-03-30T14:17:14.843Z,36.58
2019-03-30T14:18:14.856Z,38.49
2019-03-30T14:19:14.852Z,38.37
2019-03-30T14:20:14.816Z,37.96
2019-03-30T14:21:14.860Z,37.98
2019-03-30T14:22:14.774Z,37.98
2019-03-30T14:23:14.821Z,38.18
2019-03-30T14:24:14.817Z,39.29
2019-03-30T14:25:14.750Z,38.68
2019-03-30T14:26:14.742Z,38.77
2019-03-30T14:27:14.735Z,37.57
2019-03-30T14:28:14.778Z,38.33
2019-03-30T14:29:14.817Z,37.13
2019-03-30T14:30:14.709Z,36.94
2019-03-30T14:31:14.721Z,37.48
2019-03-30T14:32:14.679Z,38.79
2019-03-30T14:33:14.664Z,38.47
2019-03-30T14:34:14.667Z,37.98
2019-03-30T14:35:14.641Z,38.79
2019-03-30T14:36:14.636Z,38.47
2019-03-30T14:37:14.612Z,38.87
2019-03-30T14:38:14.604Z,39.45
2019-03-30T14:39:14.593Z,38.75
2019-03-30T14:40:14.598Z,37.85
2019-03-30T14:41:14.573Z,40.13
2019-03-30T14:42:14.560Z,38.25
2019-03-30T14:43:14.556Z,38.35
2019-03-30T14:44:14.702Z,38.45
2019-03-30T14:45:14.630Z,39.03
2019-03-30T14:46:14.528Z,37.83
2019-03-30T14:47:14.504Z,38.73
2019-03-30T14:48:14.503Z,38.55
2019-03-30T14:49:14.550Z,38.67
2019-03-30T14:50:14.734Z,38.97
2019-03-30T14:51:14.462Z,38.97
2019-03-30T14:52:14.462Z,38.79
2019-03-30T14:53:14.585Z,39.97
2019-03-30T14:54:14.452Z,40.07
2019-03-30T14:55:14.434Z,39.15
2019-03-30T14:56:14.414Z,38.13
2019-03-30T14:57:14.404Z,37.95
2019-03-30T14:58:14.398Z,38.75
2019-03-30T14:59:14.671Z,38.55
2019-03-30T15:00:14.427Z,38.17
2019-03-30T15:01:14.356Z,38.79
2019-03-30T15:02:14.353Z,39.39
2019-03-30T15:03:14.344Z,40.11
2019-03-30T15:04:14.324Z,38.81
2019-03-30T15:05:14.328Z,39.93
2019-03-30T15:06:14.320Z,39.93
2019-03-30T15:07:14.298Z,40.26
2019-03-30T15:08:14.285Z,41.17
2019-03-30T15:09:14.271Z,40.67
2019-03-30T15:10:14.262Z,41.37
2019-03-30T15:11:14.281Z,41.27
2019-03-30T15:12:14.256Z,40.47
2019-03-30T15:13:14.233Z,41.47
2019-03-30T15:14:14.225Z,41.25
2019-03-30T15:15:14.216Z,41.45
2019-03-30T15:16:14.201Z,41.25
2019-03-30T15:17:14.202Z,41.25
2019-03-30T15:18:14.181Z,41.37
2019-03-30T15:19:14.168Z,40.95
2019-03-30T15:20:14.181Z,41.35
2019-03-30T15:21:14.149Z,40.65
2019-03-30T15:22:14.195Z,40.43
2019-03-30T15:23:14.125Z,40.55
2019-03-30T15:24:14.119Z,40.45
2019-03-30T15:25:14.106Z,39.95
2019-03-30T15:26:14.097Z,40.75
2019-03-30T15:27:14.088Z,40.35
2019-03-30T15:28:14.083Z,40.05
2019-03-30T15:29:14.058Z,39.04
2019-03-30T15:30:14.048Z,38.86
2019-03-30T15:31:14.044Z,38.86
2019-03-30T15:32:14.242Z,39.56
2019-03-30T15:33:14.036Z,38.98
2019-03-30T15:34:14.007Z,39.86
2019-03-30T15:35:13.998Z,39.58
2019-03-30T15:36:13.988Z,39.98
2019-03-30T15:37:13.986Z,39.58
2019-03-30T15:38:13.970Z,39.97
2019-03-30T15:39:13.961Z,38.88
2019-03-30T15:40:13.939Z,38.36
2019-03-30T15:41:13.932Z,39.08
2019-03-30T15:42:13.949Z,39.69
2019-03-30T15:43:13.931Z,39.38
2019-03-30T15:44:13.917Z,39.48
2019-03-30T15:45:13.893Z,39.69
2019-03-30T15:46:14.429Z,39.50
2019-03-30T15:47:13.870Z,38.60
2019-03-30T15:48:13.859Z,40.00
2019-03-30T15:49:13.856Z,40.00
2019-03-30T15:50:13.831Z,40.20
2019-03-30T15:51:13.820Z,40.20
2019-03-30T15:52:14.474Z,40.00
2019-03-30T15:53:13.800Z,40.20
2019-03-30T15:54:13.823Z,40.20
2019-03-30T15:55:13.793Z,39.40
2019-03-30T15:56:13.774Z,40.00
2019-03-30T15:57:14.562Z,39.90
2019-03-30T15:58:13.747Z,39.80
2019-03-30T15:59:13.733Z,39.60
2019-03-30T16:00:13.755Z,39.92
2019-03-30T16:01:13.725Z,40.12
2019-03-30T16:02:13.702Z,39.90
2019-03-30T16:03:13.698Z,41.21
2019-03-30T16:04:13.687Z,40.41
2019-03-30T16:05:15.676Z,41.21
2019-03-30T16:06:13.666Z,41.11
2019-03-30T16:07:13.648Z,41.71
2019-03-30T16:08:13.643Z,41.29
2019-03-30T16:09:13.627Z,40.30
2019-03-30T16:10:13.626Z,40.61
2019-03-30T16:11:13.626Z,40.70
2019-03-30T16:12:13.613Z,40.73
2019-03-30T16:13:14.785Z,40.73
2019-03-30T16:14:13.580Z,40.62
2019-03-30T16:15:13.570Z,41.33
2019-03-30T16:16:13.591Z,41.25
2019-03-30T16:17:15.015Z,41.63
2019-03-30T16:18:13.547Z,41.43
2019-03-30T16:19:13.521Z,41.45
2019-03-30T16:20:13.508Z,41.55
2019-03-30T16:21:13.511Z,41.45
2019-03-30T16:22:13.533Z,41.25
2019-03-30T16:23:13.484Z,41.57
2019-03-30T16:24:13.653Z,41.77
2019-03-30T16:25:13.513Z,42.27
2019-03-30T16:26:13.449Z,41.95
2019-03-30T16:27:27.818Z,41.77
2019-03-30T16:28:14.447Z,41.67
2019-03-30T16:29:13.421Z,42.47
2019-03-30T16:30:13.568Z,42.27
2019-03-30T16:31:13.388Z,42.66
2019-03-30T16:32:16.777Z,42.15
2019-03-30T16:33:20.473Z,42.46
2019-03-30T16:34:13.357Z,41.15
2019-03-30T16:35:13.345Z,41.95
2019-03-30T16:36:13.336Z,42.15
2019-03-30T16:37:13.330Z,42.46
2019-03-30T16:38:13.352Z,41.65
2019-03-30T16:39:13.308Z,42.35
2019-03-30T16:40:13.298Z,42.55
2019-03-30T16:41:13.283Z,41.85
2019-03-30T16:42:13.293Z,42.25
2019-03-30T16:43:13.266Z,42.47
2019-03-30T16:44:13.256Z,42.98
2019-03-30T16:45:13.243Z,42.07
2019-03-30T16:46:13.231Z,42.27
2019-03-30T16:47:13.223Z,43.38
2019-03-30T16:48:14.853Z,41.57
2019-03-30T16:49:13.230Z,41.89
2019-03-30T16:50:13.185Z,43.00
2019-03-30T16:51:13.176Z,41.99
2019-03-30T16:52:13.175Z,43.51
2019-03-30T16:53:13.152Z,42.50
2019-03-30T16:54:13.141Z,43.00
2019-03-30T16:55:13.141Z,43.12
2019-03-30T16:56:13.122Z,43.52
2019-03-30T16:57:13.113Z,42.11
2019-03-30T16:58:13.101Z,43.62
2019-03-30T16:59:14.001Z,43.02
2019-03-30T17:00:13.116Z,43.42
2019-03-30T17:01:13.063Z,43.04
2019-03-30T17:02:13.052Z,44.05
2019-03-30T17:03:13.046Z,43.65
2019-03-30T17:04:13.035Z,44.85
2019-03-30T17:05:13.027Z,43.85
2019-03-30T17:06:13.024Z,43.74
2019-03-30T17:07:12.999Z,43.65
2019-03-30T17:08:13.114Z,44.05
2019-03-30T17:09:12.983Z,43.74
2019-03-30T17:10:12.980Z,44.95
2019-03-30T17:11:12.971Z,44.05
2019-03-30T17:12:12.959Z,44.95
2019-03-30T17:13:12.976Z,43.74
2019-03-30T17:14:12.975Z,44.05
2019-03-30T17:15:12.923Z,43.97
2019-03-30T17:16:12.975Z,43.97
2019-03-30T17:17:12.922Z,44.25
2019-03-30T17:18:12.886Z,43.97
2019-03-30T17:19:12.872Z,43.97
2019-03-30T17:20:12.866Z,43.97
2019-03-30T17:21:12.855Z,43.77
2019-03-30T17:22:12.904Z,44.37
2019-03-30T17:23:12.873Z,44.78
2019-03-30T17:24:12.834Z,45.07
2019-03-30T17:25:12.807Z,44.49
2019-03-30T17:26:12.801Z,44.19
2019-03-30T17:27:12.836Z,45.30
2019-03-30T17:28:12.781Z,45.20
2019-03-30T17:29:12.773Z,45.50
2019-03-30T17:30:12.759Z,45.81
2019-03-30T17:31:12.823Z,45.62
2019-03-30T17:32:12.761Z,45.73
2019-03-30T17:33:12.824Z,45.22
2019-03-30T17:34:12.720Z,45.73
2019-03-30T17:35:12.707Z,45.42
2019-03-30T17:36:12.697Z,45.22
2019-03-30T17:37:14.452Z,45.75
2019-03-30T17:38:12.668Z,45.54